Portada
METAR-TAF:

METAR-TAF

Aeroports :

Cobija, Bolívia

latitud: 11-02S, longitud: 068-47W, altitud: 235 m

Observació

L'informe es va fer fa 10 hores i 16 minuts, a les 23:00 UTC
Vent 3 kt del Sud/Sud-Est
Temperatura 30°C
Humitat 79%
Pressió 1007 hPa
Visibilitat: 8000 m
Escasses núvols a una alçada de 2500 ft
Cel ennuvolat a una alçada de 20000 ft

METAR: SLCO 202300Z 16003KT 8000 FEW025 BKN200 30/26 Q1007

Hora: 05:16 (09:16 UTC)

Pronòstic

L'informe es va fer fa 5 hores i 16 minuts, a les 04:00 UTC
Pronòstic vàlid del 21 a les 06 UTC al 22 a les 06 UTC
Vent kt del Nord
Visibilitat: 8000 m
Núvols disperses a una alçada de 1700 ft
Núvols disperses a una alçada de 7000 ft
Evolucionant progressivament
l' 21 a les 13 UTC al 21 a les 16 UTC
Vent 8 kt del Nord-Oest
Evolucionant progressivament
l' 21 a les 21 UTC al 21 a les 24 UTC
Vent kt del Nord

TAF: SLCO 210400Z 2106/2206 00000KT 8000 SCT017 SCT070 TX36/2119Z TN22/2110Z BECMG 2113/2116 32008KT BECMG 2121/2124 00000KT

Observacions i pronòstics meteorològics de més de 4000 aeroports (METAR i TAF).

Les estacions disponibles són els punts grocs i vermells al mapa.

Posi el ratolí al punt desitjat per veure el nom de l'estació.

Feu clic per veure les observacions i els pronòstics meteorològics.

Per canviar el mapa: feu clic els botons verds amb una creu de color negre per apropar; al botó verd amb un guió per allunyar la imatge; o en les fletxes verdes per a mapes adjacents.


METAR-TAF: